sensor_id;sensor_type;location;lat;lon;timestamp;temperature;humidity
39453;DHT22;25154;-33.684;151.102;2022-10-18T00:03:38;17.50;99.90
39453;DHT22;25154;-33.684;151.102;2022-10-18T00:08:40;17.70;99.90
39453;DHT22;25154;-33.684;151.102;2022-10-18T00:13:42;17.70;99.90
39453;DHT22;25154;-33.684;151.102;2022-10-18T00:18:47;18.10;99.90
39453;DHT22;25154;-33.684;151.102;2022-10-18T00:23:50;18.10;99.90
39453;DHT22;25154;-33.684;151.102;2022-10-18T00:28:56;17.90;99.90
39453;DHT22;25154;-33.684;151.102;2022-10-18T00:34:02;17.90;99.90
39453;DHT22;25154;-33.684;151.102;2022-10-18T00:39:07;17.90;99.90
39453;DHT22;25154;-33.684;151.102;2022-10-18T00:49:20;18.20;99.90
39453;DHT22;25154;-33.684;151.102;2022-10-18T00:54:25;18.20;99.90
39453;DHT22;25154;-33.684;151.102;2022-10-18T00:59:28;18.00;99.90
39453;DHT22;25154;-33.684;151.102;2022-10-18T01:04:33;17.90;99.90
39453;DHT22;25154;-33.684;151.102;2022-10-18T01:14:59;17.50;99.90
39453;DHT22;25154;-33.684;151.102;2022-10-18T01:31:14;17.10;99.90
39453;DHT22;25154;-33.684;151.102;2022-10-18T01:41:28;17.80;99.90
39453;DHT22;25154;-33.684;151.102;2022-10-18T01:46:33;18.10;99.90
39453;DHT22;25154;-33.684;151.102;2022-10-18T01:51:36;17.60;99.90
39453;DHT22;25154;-33.684;151.102;2022-10-18T01:57:18;17.20;99.90
39453;DHT22;25154;-33.684;151.102;2022-10-18T02:08:14;17.20;99.90
39453;DHT22;25154;-33.684;151.102;2022-10-18T02:13:16;17.70;99.90
39453;DHT22;25154;-33.684;151.102;2022-10-18T02:18:28;18.00;99.90
39453;DHT22;25154;-33.684;151.102;2022-10-18T02:23:32;19.10;99.90
39453;DHT22;25154;-33.684;151.102;2022-10-18T02:28:35;19.60;99.90
39453;DHT22;25154;-33.684;151.102;2022-10-18T02:39:22;19.20;99.90
39453;DHT22;25154;-33.684;151.102;2022-10-18T02:44:26;19.00;99.90
39453;DHT22;25154;-33.684;151.102;2022-10-18T02:49:28;18.60;99.90
39453;DHT22;25154;-33.684;151.102;2022-10-18T02:54:32;18.40;99.90
39453;DHT22;25154;-33.684;151.102;2022-10-18T02:59:35;18.50;99.90
39453;DHT22;25154;-33.684;151.102;2022-10-18T03:04:38;18.90;99.90
39453;DHT22;25154;-33.684;151.102;2022-10-18T03:09:41;19.70;99.90
39453;DHT22;25154;-33.684;151.102;2022-10-18T03:14:43;20.20;99.90
39453;DHT22;25154;-33.684;151.102;2022-10-18T03:19:46;20.30;99.90
39453;DHT22;25154;-33.684;151.102;2022-10-18T03:24:50;19.60;99.90
39453;DHT22;25154;-33.684;151.102;2022-10-18T03:29:54;18.90;99.90
39453;DHT22;25154;-33.684;151.102;2022-10-18T03:35:00;18.90;99.90
39453;DHT22;25154;-33.684;151.102;2022-10-18T03:40:04;19.30;99.90
39453;DHT22;25154;-33.684;151.102;2022-10-18T03:45:07;20.20;99.90
39453;DHT22;25154;-33.684;151.102;2022-10-18T03:50:10;20.90;99.90
39453;DHT22;25154;-33.684;151.102;2022-10-18T03:55:15;21.00;99.90
39453;DHT22;25154;-33.684;151.102;2022-10-18T04:00:17;21.00;99.90
39453;DHT22;25154;-33.684;151.102;2022-10-18T04:05:20;20.60;99.90
39453;DHT22;25154;-33.684;151.102;2022-10-18T04:10:25;20.30;99.90
39453;DHT22;25154;-33.684;151.102;2022-10-18T04:15:27;19.70;99.90
39453;DHT22;25154;-33.684;151.102;2022-10-18T04:20:30;19.20;99.90
39453;DHT22;25154;-33.684;151.102;2022-10-18T04:25:33;19.30;99.90
39453;DHT22;25154;-33.684;151.102;2022-10-18T04:30:36;19.30;99.90
39453;DHT22;25154;-33.684;151.102;2022-10-18T04:35:38;19.40;99.90
39453;DHT22;25154;-33.684;151.102;2022-10-18T04:40:41;19.30;99.90
39453;DHT22;25154;-33.684;151.102;2022-10-18T04:45:47;19.20;99.90
39453;DHT22;25154;-33.684;151.102;2022-10-18T04:50:53;19.10;99.90
39453;DHT22;25154;-33.684;151.102;2022-10-18T04:55:56;18.80;99.90
39453;DHT22;25154;-33.684;151.102;2022-10-18T05:00:58;18.70;99.90
39453;DHT22;25154;-33.684;151.102;2022-10-18T05:06:02;18.50;99.90
39453;DHT22;25154;-33.684;151.102;2022-10-18T05:11:06;18.60;99.90
39453;DHT22;25154;-33.684;151.102;2022-10-18T05:16:09;18.80;99.90
39453;DHT22;25154;-33.684;151.102;2022-10-18T05:21:12;19.10;99.90
39453;DHT22;25154;-33.684;151.102;2022-10-18T05:26:14;19.10;99.90
39453;DHT22;25154;-33.684;151.102;2022-10-18T05:31:17;19.10;99.90
39453;DHT22;25154;-33.684;151.102;2022-10-18T05:36:20;19.20;99.90
39453;DHT22;25154;-33.684;151.102;2022-10-18T05:41:23;19.20;99.90
39453;DHT22;25154;-33.684;151.102;2022-10-18T05:46:25;19.30;99.90
39453;DHT22;25154;-33.684;151.102;2022-10-18T05:51:28;19.30;99.90
39453;DHT22;25154;-33.684;151.102;2022-10-18T05:56:31;19.20;99.90
39453;DHT22;25154;-33.684;151.102;2022-10-18T06:01:33;19.30;99.90
39453;DHT22;25154;-33.684;151.102;2022-10-18T06:06:36;19.30;99.90
39453;DHT22;25154;-33.684;151.102;2022-10-18T06:11:39;19.10;99.90
39453;DHT22;25154;-33.684;151.102;2022-10-18T06:16:51;19.10;99.90
39453;DHT22;25154;-33.684;151.102;2022-10-18T06:21:53;19.00;99.90
39453;DHT22;25154;-33.684;151.102;2022-10-18T06:26:57;19.10;99.90
39453;DHT22;25154;-33.684;151.102;2022-10-18T06:31:59;19.10;99.90
39453;DHT22;25154;-33.684;151.102;2022-10-18T06:37:02;18.90;99.90
39453;DHT22;25154;-33.684;151.102;2022-10-18T06:42:05;18.80;99.90
39453;DHT22;25154;-33.684;151.102;2022-10-18T06:47:08;18.60;99.90
39453;DHT22;25154;-33.684;151.102;2022-10-18T06:52:10;18.40;99.90
39453;DHT22;25154;-33.684;151.102;2022-10-18T06:57:13;18.40;99.90
39453;DHT22;25154;-33.684;151.102;2022-10-18T07:02:16;18.30;99.90
39453;DHT22;25154;-33.684;151.102;2022-10-18T07:07:19;18.20;99.90
39453;DHT22;25154;-33.684;151.102;2022-10-18T07:12:22;18.20;99.90
39453;DHT22;25154;-33.684;151.102;2022-10-18T07:17:25;18.10;99.90
39453;DHT22;25154;-33.684;151.102;2022-10-18T07:22:28;18.00;99.90
39453;DHT22;25154;-33.684;151.102;2022-10-18T07:27:34;17.90;99.90
39453;DHT22;25154;-33.684;151.102;2022-10-18T07:32:37;17.70;99.90
39453;DHT22;25154;-33.684;151.102;2022-10-18T07:37:40;17.60;99.90
39453;DHT22;25154;-33.684;151.102;2022-10-18T07:42:42;17.40;99.90
39453;DHT22;25154;-33.684;151.102;2022-10-18T07:47:45;17.30;99.90
39453;DHT22;25154;-33.684;151.102;2022-10-18T07:52:48;17.20;99.90
39453;DHT22;25154;-33.684;151.102;2022-10-18T07:57:51;17.10;99.90
39453;DHT22;25154;-33.684;151.102;2022-10-18T08:02:57;17.10;99.90
39453;DHT22;25154;-33.684;151.102;2022-10-18T08:08:00;17.00;99.90
39453;DHT22;25154;-33.684;151.102;2022-10-18T08:13:03;16.60;99.90
39453;DHT22;25154;-33.684;151.102;2022-10-18T08:18:09;16.90;99.90
39453;DHT22;25154;-33.684;151.102;2022-10-18T08:23:12;16.90;99.90
39453;DHT22;25154;-33.684;151.102;2022-10-18T08:28:15;16.80;99.90
39453;DHT22;25154;-33.684;151.102;2022-10-18T08:33:18;16.70;99.90
39453;DHT22;25154;-33.684;151.102;2022-10-18T08:38:20;16.60;99.90
39453;DHT22;25154;-33.684;151.102;2022-10-18T08:43:36;16.40;99.90
39453;DHT22;25154;-33.684;151.102;2022-10-18T08:48:48;16.40;99.90
39453;DHT22;25154;-33.684;151.102;2022-10-18T08:53:58;16.30;99.90
39453;DHT22;25154;-33.684;151.102;2022-10-18T08:59:09;16.40;99.90
39453;DHT22;25154;-33.684;151.102;2022-10-18T09:09:53;16.30;99.90
39453;DHT22;25154;-33.684;151.102;2022-10-18T09:15:15;16.30;99.90
39453;DHT22;25154;-33.684;151.102;2022-10-18T09:20:31;16.30;99.90
39453;DHT22;25154;-33.684;151.102;2022-10-18T09:25:47;16.30;99.90
39453;DHT22;25154;-33.684;151.102;2022-10-18T09:36:07;16.40;99.90
39453;DHT22;25154;-33.684;151.102;2022-10-18T09:41:23;16.40;99.90
39453;DHT22;25154;-33.684;151.102;2022-10-18T09:46:28;16.30;99.90
39453;DHT22;25154;-33.684;151.102;2022-10-18T09:51:37;16.30;99.90
39453;DHT22;25154;-33.684;151.102;2022-10-18T10:02:16;16.30;99.90
39453;DHT22;25154;-33.684;151.102;2022-10-18T10:07:42;16.20;99.90
39453;DHT22;25154;-33.684;151.102;2022-10-18T10:13:34;16.20;99.90
39453;DHT22;25154;-33.684;151.102;2022-10-18T10:18:23;16.00;99.90
39453;DHT22;25154;-33.684;151.102;2022-10-18T10:23:36;16.10;99.90
39453;DHT22;25154;-33.684;151.102;2022-10-18T10:28:42;16.10;99.90
39453;DHT22;25154;-33.684;151.102;2022-10-18T10:33:47;16.10;99.90
39453;DHT22;25154;-33.684;151.102;2022-10-18T10:39:18;16.10;99.90
39453;DHT22;25154;-33.684;151.102;2022-10-18T10:44:29;16.10;99.90
39453;DHT22;25154;-33.684;151.102;2022-10-18T10:49:44;16.10;99.90
39453;DHT22;25154;-33.684;151.102;2022-10-18T10:54:47;16.00;99.90
39453;DHT22;25154;-33.684;151.102;2022-10-18T10:59:51;16.00;99.90
39453;DHT22;25154;-33.684;151.102;2022-10-18T11:04:55;16.00;99.90
39453;DHT22;25154;-33.684;151.102;2022-10-18T11:10:00;16.00;99.90
39453;DHT22;25154;-33.684;151.102;2022-10-18T11:15:14;16.10;99.90
39453;DHT22;25154;-33.684;151.102;2022-10-18T11:25:42;16.00;99.90
39453;DHT22;25154;-33.684;151.102;2022-10-18T11:36:26;15.80;99.90
39453;DHT22;25154;-33.684;151.102;2022-10-18T11:47:32;15.50;99.90
39453;DHT22;25154;-33.684;151.102;2022-10-18T12:08:52;15.40;99.90
39453;DHT22;25154;-33.684;151.102;2022-10-18T12:14:32;15.40;99.90
39453;DHT22;25154;-33.684;151.102;2022-10-18T12:19:36;15.50;99.90
39453;DHT22;25154;-33.684;151.102;2022-10-18T12:24:40;15.50;99.90
39453;DHT22;25154;-33.684;151.102;2022-10-18T12:30:00;15.60;99.90
39453;DHT22;25154;-33.684;151.102;2022-10-18T12:35:13;15.60;99.90
39453;DHT22;25154;-33.684;151.102;2022-10-18T12:40:33;15.60;99.90
39453;DHT22;25154;-33.684;151.102;2022-10-18T12:46:09;15.60;99.90
39453;DHT22;25154;-33.684;151.102;2022-10-18T12:51:13;15.60;99.90
39453;DHT22;25154;-33.684;151.102;2022-10-18T13:33:42;15.50;99.90
39453;DHT22;25154;-33.684;151.102;2022-10-18T14:00:47;15.50;99.90
39453;DHT22;25154;-33.684;151.102;2022-10-18T14:11:03;15.50;99.90
39453;DHT22;25154;-33.684;151.102;2022-10-18T14:16:36;15.40;99.90
39453;DHT22;25154;-33.684;151.102;2022-10-18T14:21:38;15.40;99.90
39453;DHT22;25154;-33.684;151.102;2022-10-18T14:26:43;15.50;99.90
39453;DHT22;25154;-33.684;151.102;2022-10-18T14:31:53;15.90;99.90
39453;DHT22;25154;-33.684;151.102;2022-10-18T14:36:56;15.50;99.90
39453;DHT22;25154;-33.684;151.102;2022-10-18T14:41:59;15.60;99.90
39453;DHT22;25154;-33.684;151.102;2022-10-18T14:47:15;15.50;99.90
39453;DHT22;25154;-33.684;151.102;2022-10-18T14:52:22;15.50;99.90
39453;DHT22;25154;-33.684;151.102;2022-10-18T14:57:37;15.60;99.90
39453;DHT22;25154;-33.684;151.102;2022-10-18T15:02:40;16.70;99.90
39453;DHT22;25154;-33.684;151.102;2022-10-18T15:07:43;15.60;99.90
39453;DHT22;25154;-33.684;151.102;2022-10-18T15:12:46;15.60;99.90
39453;DHT22;25154;-33.684;151.102;2022-10-18T15:17:49;15.60;99.90
39453;DHT22;25154;-33.684;151.102;2022-10-18T15:22:53;15.70;99.90
39453;DHT22;25154;-33.684;151.102;2022-10-18T15:27:57;15.60;99.90
39453;DHT22;25154;-33.684;151.102;2022-10-18T15:33:02;15.60;99.90
39453;DHT22;25154;-33.684;151.102;2022-10-18T15:53:44;15.80;99.90
39453;DHT22;25154;-33.684;151.102;2022-10-18T15:58:47;16.00;99.90
39453;DHT22;25154;-33.684;151.102;2022-10-18T16:03:52;16.00;99.90
39453;DHT22;25154;-33.684;151.102;2022-10-18T16:08:54;16.10;99.90
39453;DHT22;25154;-33.684;151.102;2022-10-18T16:13:57;16.00;99.90
39453;DHT22;25154;-33.684;151.102;2022-10-18T16:19:00;16.00;99.90
39453;DHT22;25154;-33.684;151.102;2022-10-18T16:24:04;16.00;99.90
39453;DHT22;25154;-33.684;151.102;2022-10-18T16:29:11;16.00;99.90
39453;DHT22;25154;-33.684;151.102;2022-10-18T16:34:14;16.00;99.90
39453;DHT22;25154;-33.684;151.102;2022-10-18T16:39:19;16.00;99.90
39453;DHT22;25154;-33.684;151.102;2022-10-18T16:44:22;16.00;99.90
39453;DHT22;25154;-33.684;151.102;2022-10-18T16:49:26;16.00;99.90
39453;DHT22;25154;-33.684;151.102;2022-10-18T16:54:28;16.00;99.90
39453;DHT22;25154;-33.684;151.102;2022-10-18T16:59:31;16.60;99.90
39453;DHT22;25154;-33.684;151.102;2022-10-18T17:04:34;16.00;99.90
39453;DHT22;25154;-33.684;151.102;2022-10-18T17:09:37;16.10;99.90
39453;DHT22;25154;-33.684;151.102;2022-10-18T17:14:40;16.00;99.90
39453;DHT22;25154;-33.684;151.102;2022-10-18T17:19:42;15.90;99.90
39453;DHT22;25154;-33.684;151.102;2022-10-18T17:24:45;15.90;99.90
39453;DHT22;25154;-33.684;151.102;2022-10-18T17:29:48;15.80;99.90
39453;DHT22;25154;-33.684;151.102;2022-10-18T17:34:50;15.80;99.90
39453;DHT22;25154;-33.684;151.102;2022-10-18T17:39:53;15.80;99.90
39453;DHT22;25154;-33.684;151.102;2022-10-18T17:44:56;15.80;99.90
39453;DHT22;25154;-33.684;151.102;2022-10-18T17:49:59;15.80;99.90
39453;DHT22;25154;-33.684;151.102;2022-10-18T17:55:02;15.80;99.90
39453;DHT22;25154;-33.684;151.102;2022-10-18T18:00:07;15.70;99.90
39453;DHT22;25154;-33.684;151.102;2022-10-18T18:05:10;15.70;99.90
39453;DHT22;25154;-33.684;151.102;2022-10-18T18:10:13;15.70;99.90
39453;DHT22;25154;-33.684;151.102;2022-10-18T18:15:16;15.70;99.90
39453;DHT22;25154;-33.684;151.102;2022-10-18T18:20:19;15.70;99.90
39453;DHT22;25154;-33.684;151.102;2022-10-18T18:25:21;15.70;99.90
39453;DHT22;25154;-33.684;151.102;2022-10-18T18:30:24;15.70;99.90
39453;DHT22;25154;-33.684;151.102;2022-10-18T18:35:27;15.70;99.90
39453;DHT22;25154;-33.684;151.102;2022-10-18T18:40:29;15.70;99.90
39453;DHT22;25154;-33.684;151.102;2022-10-18T18:45:32;15.80;99.90
39453;DHT22;25154;-33.684;151.102;2022-10-18T18:50:35;15.80;99.90
39453;DHT22;25154;-33.684;151.102;2022-10-18T18:55:38;15.80;99.90
39453;DHT22;25154;-33.684;151.102;2022-10-18T19:00:43;15.80;99.90
39453;DHT22;25154;-33.684;151.102;2022-10-18T19:05:46;15.70;99.90
39453;DHT22;25154;-33.684;151.102;2022-10-18T19:10:48;15.70;99.90
39453;DHT22;25154;-33.684;151.102;2022-10-18T19:15:51;15.70;99.90
39453;DHT22;25154;-33.684;151.102;2022-10-18T19:20:54;15.70;99.90
39453;DHT22;25154;-33.684;151.102;2022-10-18T19:26:12;15.70;99.90
39453;DHT22;25154;-33.684;151.102;2022-10-18T19:31:14;15.70;99.90
39453;DHT22;25154;-33.684;151.102;2022-10-18T19:36:17;15.70;99.90
39453;DHT22;25154;-33.684;151.102;2022-10-18T19:41:20;17.20;99.90
39453;DHT22;25154;-33.684;151.102;2022-10-18T19:46:24;15.80;99.90
39453;DHT22;25154;-33.684;151.102;2022-10-18T19:51:27;15.80;99.90
39453;DHT22;25154;-33.684;151.102;2022-10-18T19:56:30;15.80;99.90
39453;DHT22;25154;-33.684;151.102;2022-10-18T20:01:33;15.80;99.90
39453;DHT22;25154;-33.684;151.102;2022-10-18T20:06:37;15.80;99.90
39453;DHT22;25154;-33.684;151.102;2022-10-18T20:11:40;15.80;99.90
39453;DHT22;25154;-33.684;151.102;2022-10-18T20:16:42;15.90;99.90
39453;DHT22;25154;-33.684;151.102;2022-10-18T20:21:45;15.80;99.90
39453;DHT22;25154;-33.684;151.102;2022-10-18T20:26:48;16.00;99.90
39453;DHT22;25154;-33.684;151.102;2022-10-18T20:31:51;16.00;99.90
39453;DHT22;25154;-33.684;151.102;2022-10-18T20:36:56;16.10;99.90
39453;DHT22;25154;-33.684;151.102;2022-10-18T20:41:59;16.20;99.90
39453;DHT22;25154;-33.684;151.102;2022-10-18T20:47:01;16.20;99.90
39453;DHT22;25154;-33.684;151.102;2022-10-18T20:52:04;16.30;99.90
39453;DHT22;25154;-33.684;151.102;2022-10-18T20:57:07;17.00;99.90
39453;DHT22;25154;-33.684;151.102;2022-10-18T21:02:12;16.30;99.90
39453;DHT22;25154;-33.684;151.102;2022-10-18T21:07:15;16.40;99.90
39453;DHT22;25154;-33.684;151.102;2022-10-18T21:12:17;16.50;99.90
39453;DHT22;25154;-33.684;151.102;2022-10-18T21:17:22;16.70;99.90
39453;DHT22;25154;-33.684;151.102;2022-10-18T21:22:26;16.80;99.90
39453;DHT22;25154;-33.684;151.102;2022-10-18T21:27:31;16.80;99.90
39453;DHT22;25154;-33.684;151.102;2022-10-18T21:32:33;17.00;99.90
39453;DHT22;25154;-33.684;151.102;2022-10-18T21:37:36;17.10;99.90
39453;DHT22;25154;-33.684;151.102;2022-10-18T21:42:40;17.40;99.90
39453;DHT22;25154;-33.684;151.102;2022-10-18T21:47:43;17.70;99.90
39453;DHT22;25154;-33.684;151.102;2022-10-18T21:52:46;18.20;99.90
39453;DHT22;25154;-33.684;151.102;2022-10-18T21:57:48;18.30;99.90
39453;DHT22;25154;-33.684;151.102;2022-10-18T22:03:08;18.30;99.90
39453;DHT22;25154;-33.684;151.102;2022-10-18T22:08:11;18.40;99.90
39453;DHT22;25154;-33.684;151.102;2022-10-18T22:13:14;18.50;99.90
39453;DHT22;25154;-33.684;151.102;2022-10-18T22:18:17;18.70;99.90
39453;DHT22;25154;-33.684;151.102;2022-10-18T22:23:19;19.00;99.90
39453;DHT22;25154;-33.684;151.102;2022-10-18T22:28:22;19.30;99.90
39453;DHT22;25154;-33.684;151.102;2022-10-18T22:33:25;19.60;99.90
39453;DHT22;25154;-33.684;151.102;2022-10-18T22:38:32;19.60;99.90
39453;DHT22;25154;-33.684;151.102;2022-10-18T22:43:36;19.60;99.90
39453;DHT22;25154;-33.684;151.102;2022-10-18T22:48:39;19.80;99.90
39453;DHT22;25154;-33.684;151.102;2022-10-18T22:53:42;19.70;99.90
39453;DHT22;25154;-33.684;151.102;2022-10-18T22:58:45;20.30;99.90
39453;DHT22;25154;-33.684;151.102;2022-10-18T23:03:53;20.60;99.90
39453;DHT22;25154;-33.684;151.102;2022-10-18T23:08:58;21.00;99.90
39453;DHT22;25154;-33.684;151.102;2022-10-18T23:14:02;21.40;99.90
39453;DHT22;25154;-33.684;151.102;2022-10-18T23:19:09;21.80;99.90
39453;DHT22;25154;-33.684;151.102;2022-10-18T23:24:16;21.80;99.90
39453;DHT22;25154;-33.684;151.102;2022-10-18T23:29:20;22.10;99.90
39453;DHT22;25154;-33.684;151.102;2022-10-18T23:34:25;22.60;99.90
39453;DHT22;25154;-33.684;151.102;2022-10-18T23:39:29;22.70;99.90
39453;DHT22;25154;-33.684;151.102;2022-10-18T23:44:31;23.00;99.90
39453;DHT22;25154;-33.684;151.102;2022-10-18T23:49:34;23.20;99.90
39453;DHT22;25154;-33.684;151.102;2022-10-18T23:54:37;23.60;99.90
39453;DHT22;25154;-33.684;151.102;2022-10-18T23:59:39;23.70;99.90
